createdAt,value
2023-05-21T00:00:42.073Z,0.73
2023-05-21T00:01:32.150Z,0.72
2023-05-21T00:02:22.218Z,0.72
2023-05-21T00:03:12.339Z,0.71
2023-05-21T00:04:02.438Z,0.70
2023-05-21T00:04:52.387Z,0.73
2023-05-21T00:05:42.520Z,0.72
2023-05-21T00:06:32.672Z,0.69
2023-05-21T00:07:22.526Z,0.74
2023-05-21T00:08:12.599Z,0.71
2023-05-21T00:09:02.670Z,0.72
2023-05-21T00:09:52.700Z,0.70
2023-05-21T00:10:42.765Z,0.69
2023-05-21T00:11:32.809Z,0.72
2023-05-21T00:12:22.866Z,0.68
2023-05-21T00:13:12.953Z,0.70
2023-05-21T00:14:02.976Z,0.72
2023-05-21T00:14:53.052Z,0.71
2023-05-21T00:15:43.108Z,0.72
2023-05-21T00:16:33.180Z,0.72
2023-05-21T00:17:23.221Z,0.71
2023-05-21T00:18:13.314Z,0.72
2023-05-21T00:19:03.365Z,0.74
2023-05-21T00:19:53.385Z,0.71
2023-05-21T00:20:43.446Z,0.71
2023-05-21T00:21:33.518Z,0.70
2023-05-21T00:22:23.582Z,0.73
2023-05-21T00:23:13.652Z,0.72
2023-05-21T00:24:03.727Z,0.74
2023-05-21T00:24:53.761Z,0.71
2023-05-21T00:25:43.819Z,0.71
2023-05-21T00:26:33.890Z,0.72
2023-05-21T00:27:23.957Z,0.72
2023-05-21T00:28:14.075Z,0.73
2023-05-21T00:29:04.084Z,0.73
2023-05-21T00:29:54.145Z,0.75
2023-05-21T00:30:44.157Z,0.74
2023-05-21T00:31:34.246Z,0.74
2023-05-21T00:32:24.317Z,0.74
2023-05-21T00:33:14.371Z,0.73
2023-05-21T00:34:04.470Z,0.72
2023-05-21T00:34:54.568Z,0.74
2023-05-21T00:35:44.513Z,0.72
2023-05-21T00:36:34.594Z,0.74
2023-05-21T00:37:24.674Z,0.74
2023-05-21T00:38:14.732Z,0.72
2023-05-21T00:39:04.809Z,0.71
2023-05-21T00:39:56.321Z,0.72
2023-05-21T00:40:44.901Z,0.72
2023-05-21T00:41:34.958Z,0.72
2023-05-21T00:42:25.015Z,0.72
2023-05-21T00:43:15.099Z,0.73
2023-05-21T00:44:05.167Z,0.72
2023-05-21T00:44:55.201Z,0.73
2023-05-21T00:45:45.270Z,0.72
2023-05-21T00:46:35.350Z,0.74
2023-05-21T00:47:25.420Z,0.71
2023-05-21T00:48:15.443Z,0.72
2023-05-21T00:49:05.514Z,0.72
2023-05-21T00:49:55.542Z,0.71
2023-05-21T00:50:45.629Z,0.72
2023-05-21T00:51:35.687Z,0.73
2023-05-21T00:52:25.737Z,0.74
2023-05-21T00:53:15.812Z,0.71
2023-05-21T00:54:05.910Z,0.71
2023-05-21T00:54:55.923Z,0.71
2023-05-21T00:55:45.947Z,0.71
2023-05-21T00:56:36.016Z,0.70
2023-05-21T00:57:26.081Z,0.72
2023-05-21T00:58:16.167Z,0.73
2023-05-21T00:59:06.245Z,0.71
2023-05-21T00:59:56.265Z,0.72
2023-05-21T01:00:46.328Z,0.74
2023-05-21T01:01:36.418Z,0.72
2023-05-21T01:02:26.494Z,0.73
2023-05-21T01:03:16.786Z,0.74
2023-05-21T01:04:06.600Z,0.74
2023-05-21T01:04:56.626Z,0.72
2023-05-21T01:05:46.681Z,0.71
2023-05-21T01:06:36.788Z,0.73
2023-05-21T01:07:26.824Z,0.73
2023-05-21T01:08:16.891Z,0.74
2023-05-21T01:09:06.974Z,0.74
2023-05-21T01:09:56.992Z,0.72
2023-05-21T01:10:47.053Z,0.72
2023-05-21T01:11:37.127Z,0.73
2023-05-21T01:12:27.187Z,0.72
2023-05-21T01:13:17.267Z,0.75
2023-05-21T01:14:07.337Z,0.73
2023-05-21T01:14:57.362Z,0.72
2023-05-21T01:15:47.447Z,0.74
2023-05-21T01:16:37.510Z,0.73
2023-05-21T01:17:27.552Z,0.71
2023-05-21T01:18:17.626Z,0.74
2023-05-21T01:19:07.917Z,0.71
2023-05-21T01:19:57.719Z,0.73
2023-05-21T01:20:47.781Z,0.72
2023-05-21T01:21:37.845Z,0.69
2023-05-21T01:22:27.929Z,0.71
2023-05-21T01:23:17.979Z,0.71
2023-05-21T01:24:08.054Z,0.75
2023-05-21T01:24:58.136Z,0.71
2023-05-21T01:25:48.180Z,0.73
2023-05-21T01:26:38.249Z,0.72
2023-05-21T01:27:28.311Z,0.73
2023-05-21T01:28:18.378Z,0.74
2023-05-21T01:29:08.448Z,0.71
2023-05-21T01:29:58.471Z,0.73
2023-05-21T01:30:48.533Z,0.71
2023-05-21T01:31:38.577Z,0.71
2023-05-21T01:32:28.675Z,0.74
2023-05-21T01:33:18.780Z,0.71
2023-05-21T01:34:08.830Z,0.71
2023-05-21T01:34:58.820Z,0.72
2023-05-21T01:35:48.877Z,0.72
2023-05-21T01:36:38.945Z,0.72
2023-05-21T01:37:29.005Z,0.72
2023-05-21T01:38:19.168Z,0.73
2023-05-21T01:39:09.140Z,0.73
2023-05-21T01:39:59.169Z,0.72
2023-05-21T01:40:49.220Z,0.72
2023-05-21T01:41:39.294Z,0.73
2023-05-21T01:42:29.355Z,0.74
2023-05-21T01:43:19.429Z,0.72
2023-05-21T01:44:09.499Z,0.70
2023-05-21T01:44:59.520Z,0.70
2023-05-21T01:45:49.585Z,0.73
2023-05-21T01:46:39.684Z,0.70
2023-05-21T01:47:29.767Z,0.71
2023-05-21T01:48:19.773Z,0.71
2023-05-21T01:49:09.862Z,0.72
2023-05-21T01:49:59.912Z,0.73
2023-05-21T01:50:49.911Z,0.69
2023-05-21T01:51:39.980Z,0.71
2023-05-21T01:52:30.048Z,0.72
2023-05-21T01:53:20.117Z,0.72
2023-05-21T01:54:10.223Z,0.73
2023-05-21T01:55:00.296Z,0.70
2023-05-21T01:55:50.285Z,0.70
2023-05-21T01:56:40.360Z,0.74
2023-05-21T01:57:30.436Z,0.71
2023-05-21T01:58:20.480Z,0.71
2023-05-21T01:59:10.557Z,0.71
2023-05-21T02:00:00.589Z,0.72
2023-05-21T02:00:50.645Z,0.73
2023-05-21T02:01:40.799Z,0.72
2023-05-21T02:02:30.832Z,0.70
2023-05-21T02:03:20.987Z,0.71
2023-05-21T02:04:10.997Z,0.73
2023-05-21T02:05:00.949Z,0.72
2023-05-21T02:05:51.007Z,0.71
2023-05-21T02:06:41.075Z,0.70
2023-05-21T02:07:31.133Z,0.70
2023-05-21T02:08:21.211Z,0.72
2023-05-21T02:09:11.277Z,0.69
2023-05-21T02:10:01.326Z,0.70
2023-05-21T02:10:51.363Z,0.72
2023-05-21T02:11:41.432Z,0.71
2023-05-21T02:12:31.498Z,0.73
2023-05-21T02:13:23.523Z,0.72
2023-05-21T02:14:11.652Z,0.72
2023-05-21T02:15:01.719Z,0.70
2023-05-21T02:15:51.825Z,0.73
2023-05-21T02:16:41.867Z,0.72
2023-05-21T02:17:31.935Z,0.73
2023-05-21T02:18:21.951Z,0.70
2023-05-21T02:19:12.101Z,0.72
2023-05-21T02:20:02.062Z,0.72
2023-05-21T02:20:52.136Z,0.74
2023-05-21T02:21:42.198Z,0.73
2023-05-21T02:22:32.258Z,0.71
2023-05-21T02:23:22.326Z,0.73
2023-05-21T02:24:12.400Z,0.72
2023-05-21T02:25:02.434Z,0.74
2023-05-21T02:25:52.502Z,0.70
2023-05-21T02:26:42.543Z,0.72
2023-05-21T02:27:32.604Z,0.70
2023-05-21T02:28:22.705Z,0.70
2023-05-21T02:29:12.745Z,0.71
2023-05-21T02:30:02.768Z,0.71
2023-05-21T02:30:52.823Z,0.71
2023-05-21T02:31:42.890Z,0.71
2023-05-21T02:32:32.978Z,0.71
2023-05-21T02:33:23.022Z,0.70
2023-05-21T02:34:13.112Z,0.70
2023-05-21T02:35:03.143Z,0.73
2023-05-21T02:35:53.212Z,0.69
2023-05-21T02:36:43.268Z,0.70
2023-05-21T02:37:33.339Z,0.70
2023-05-21T02:38:23.454Z,0.70
2023-05-21T02:39:13.490Z,0.73
2023-05-21T02:40:03.535Z,0.73
2023-05-21T02:40:53.666Z,0.71
2023-05-21T02:41:43.733Z,0.71
2023-05-21T02:42:33.688Z,0.72
2023-05-21T02:43:23.754Z,0.70
2023-05-21T02:44:13.829Z,0.71
2023-05-21T02:45:03.919Z,0.69
2023-05-21T02:45:53.998Z,0.70
2023-05-21T02:46:44.013Z,0.73
2023-05-21T02:47:34.125Z,0.69
2023-05-21T02:48:24.128Z,0.70
2023-05-21T02:49:14.216Z,0.69
2023-05-21T02:50:04.243Z,0.71
2023-05-21T02:50:54.300Z,0.70
2023-05-21T02:51:45.372Z,0.68
2023-05-21T02:52:34.427Z,0.72
2023-05-21T02:53:24.497Z,0.69
2023-05-21T02:54:14.581Z,0.71
2023-05-21T02:55:04.595Z,0.72
2023-05-21T02:55:54.655Z,0.70
2023-05-21T02:56:44.721Z,0.71
2023-05-21T02:57:34.820Z,0.70
2023-05-21T02:58:24.847Z,0.69
2023-05-21T02:59:14.922Z,0.69
2023-05-21T03:00:04.946Z,0.71
2023-05-21T03:00:55.014Z,0.70
2023-05-21T03:01:45.239Z,0.71
2023-05-21T03:02:35.257Z,0.70
2023-05-21T03:03:25.273Z,0.71
2023-05-21T03:04:16.366Z,0.71
2023-05-21T03:05:05.337Z,0.70
2023-05-21T03:05:55.382Z,0.71
2023-05-21T03:06:45.449Z,0.70
2023-05-21T03:07:35.521Z,0.70
2023-05-21T03:08:25.574Z,0.70
2023-05-21T03:09:15.653Z,0.68
2023-05-21T03:10:05.676Z,0.73
2023-05-21T03:10:55.729Z,0.70
2023-05-21T03:11:45.798Z,0.71
2023-05-21T03:12:35.852Z,0.72
2023-05-21T03:13:26.151Z,0.72
2023-05-21T03:14:15.981Z,0.70
2023-05-21T03:15:06.008Z,0.70
2023-05-21T03:15:56.057Z,0.70
2023-05-21T03:16:46.183Z,0.70
2023-05-21T03:17:36.218Z,0.70
2023-05-21T03:18:26.230Z,0.71
2023-05-21T03:19:16.404Z,0.69
2023-05-21T03:20:06.355Z,0.69
2023-05-21T03:20:56.417Z,0.70
2023-05-21T03:21:46.478Z,0.71
2023-05-21T03:22:36.530Z,0.69
2023-05-21T03:23:26.594Z,0.69
2023-05-21T03:24:16.665Z,0.70
2023-05-21T03:25:06.732Z,0.71
2023-05-21T03:25:56.795Z,0.70
2023-05-21T03:26:46.856Z,0.71
2023-05-21T03:27:36.902Z,0.69
2023-05-21T03:28:26.972Z,0.70
2023-05-21T03:29:17.064Z,0.69
2023-05-21T03:30:07.101Z,0.69
2023-05-21T03:30:57.157Z,0.70
2023-05-21T03:31:47.257Z,0.70
2023-05-21T03:32:37.320Z,0.69
2023-05-21T03:33:27.346Z,0.70
2023-05-21T03:34:17.415Z,0.70
2023-05-21T03:35:07.468Z,0.71
2023-05-21T03:35:57.526Z,0.71
2023-05-21T03:36:47.601Z,0.70
2023-05-21T03:37:37.639Z,0.70
2023-05-21T03:38:27.704Z,0.70
2023-05-21T03:39:17.790Z,0.71
2023-05-21T03:40:07.821Z,0.70
2023-05-21T03:40:57.880Z,0.70
2023-05-21T03:41:47.930Z,0.70
2023-05-21T03:42:37.995Z,0.70
2023-05-21T03:43:28.056Z,0.71
2023-05-21T03:44:18.148Z,0.71
2023-05-21T03:45:08.189Z,0.71
2023-05-21T03:45:58.264Z,0.69
2023-05-21T03:46:48.294Z,0.69
2023-05-21T03:47:38.408Z,0.69
2023-05-21T03:48:28.422Z,0.68
2023-05-21T03:49:18.514Z,0.69
2023-05-21T03:50:08.546Z,0.69
2023-05-21T03:50:58.581Z,0.69
2023-05-21T03:51:48.645Z,0.69
2023-05-21T03:52:38.709Z,0.69
2023-05-21T03:53:28.764Z,0.69
2023-05-21T03:54:18.846Z,0.68
2023-05-21T03:55:08.900Z,0.69
2023-05-21T03:55:58.956Z,0.68
2023-05-21T03:56:48.998Z,0.70
2023-05-21T03:57:39.047Z,0.68
2023-05-21T03:58:29.116Z,0.70
2023-05-21T03:59:19.198Z,0.69
2023-05-21T04:00:09.254Z,0.70
2023-05-21T04:00:59.333Z,0.68
2023-05-21T04:01:49.371Z,0.71
2023-05-21T04:02:39.602Z,0.70
2023-05-21T04:03:29.856Z,0.71
2023-05-21T04:04:19.701Z,0.67
2023-05-21T04:05:09.615Z,0.68
2023-05-21T04:05:59.675Z,0.70
2023-05-21T04:06:49.748Z,0.69
2023-05-21T04:07:39.807Z,0.66
2023-05-21T04:08:29.869Z,0.70
2023-05-21T04:09:19.944Z,0.69
2023-05-21T04:10:10.063Z,0.69
2023-05-21T04:11:00.039Z,0.68
2023-05-21T04:11:50.100Z,0.68
2023-05-21T04:12:40.157Z,0.67
2023-05-21T04:13:30.227Z,0.68
2023-05-21T04:14:20.303Z,0.67
2023-05-21T04:15:10.318Z,0.68
2023-05-21T04:16:00.432Z,0.70
2023-05-21T04:16:50.444Z,0.68
2023-05-21T04:17:40.511Z,0.70
2023-05-21T04:18:30.547Z,0.69
2023-05-21T04:19:20.673Z,0.67
2023-05-21T04:20:10.664Z,0.68
2023-05-21T04:21:00.721Z,0.67
2023-05-21T04:21:50.782Z,0.67
2023-05-21T04:22:40.834Z,0.69
2023-05-21T04:23:30.898Z,0.67
2023-05-21T04:24:20.963Z,0.68
2023-05-21T04:25:11.033Z,0.68
2023-05-21T04:26:01.062Z,0.69
2023-05-21T04:26:51.118Z,0.67
2023-05-21T04:27:41.164Z,0.68
2023-05-21T04:28:31.231Z,0.67
2023-05-21T04:29:21.340Z,0.68
2023-05-21T04:30:11.381Z,0.69
2023-05-21T04:31:01.571Z,0.68
2023-05-21T04:31:51.652Z,0.69
2023-05-21T04:32:41.617Z,0.68
2023-05-21T04:33:31.617Z,0.67
2023-05-21T04:34:21.680Z,0.69
2023-05-21T04:35:11.732Z,0.67
2023-05-21T04:36:01.797Z,0.70
2023-05-21T04:36:51.852Z,0.67
2023-05-21T04:37:41.908Z,0.69
2023-05-21T04:38:32.028Z,0.68
2023-05-21T04:39:22.082Z,0.67
2023-05-21T04:40:12.075Z,0.69
2023-05-21T04:41:02.137Z,0.68
2023-05-21T04:41:52.202Z,0.68
2023-05-21T04:42:42.267Z,0.68
2023-05-21T04:43:32.311Z,0.68
2023-05-21T04:44:22.401Z,0.68
2023-05-21T04:45:12.405Z,0.68
2023-05-21T04:46:03.910Z,0.67
2023-05-21T04:46:52.554Z,0.69
2023-05-21T04:47:42.601Z,0.67
2023-05-21T04:48:32.621Z,0.69
2023-05-21T04:49:22.682Z,0.69
2023-05-21T04:50:12.697Z,0.69
2023-05-21T04:51:02.763Z,0.68
2023-05-21T04:51:52.817Z,0.68
2023-05-21T04:52:42.885Z,0.66
2023-05-21T04:53:32.955Z,0.66
2023-05-21T04:54:22.989Z,0.66
2023-05-21T04:55:13.050Z,0.69
2023-05-21T04:56:03.108Z,0.67
2023-05-21T04:56:53.164Z,0.68
2023-05-21T04:57:43.226Z,0.68
2023-05-21T04:58:33.318Z,0.67
2023-05-21T04:59:23.356Z,0.67
2023-05-21T05:00:13.417Z,0.66
2023-05-21T05:01:03.586Z,0.68
2023-05-21T05:01:53.528Z,0.67
2023-05-21T05:02:43.662Z,0.67
2023-05-21T05:03:33.723Z,0.67
2023-05-21T05:04:23.730Z,0.69
2023-05-21T05:05:13.728Z,0.68
2023-05-21T05:06:03.785Z,0.68
2023-05-21T05:06:53.861Z,0.65
2023-05-21T05:07:43.910Z,0.63
2023-05-21T05:08:33.974Z,0.65
2023-05-21T05:09:24.051Z,0.65
2023-05-21T05:10:14.119Z,0.65
2023-05-21T05:11:04.167Z,0.68
2023-05-21T05:11:54.224Z,0.66
2023-05-21T05:12:44.278Z,0.65
2023-05-21T05:13:34.347Z,0.67
2023-05-21T05:14:24.426Z,0.66
2023-05-21T05:15:14.486Z,0.67
2023-05-21T05:16:04.578Z,0.66
2023-05-21T05:16:54.738Z,0.67
2023-05-21T05:17:44.689Z,0.65
2023-05-21T05:18:34.710Z,0.64
2023-05-21T05:19:24.835Z,0.65
2023-05-21T05:20:14.830Z,0.65
2023-05-21T05:21:04.861Z,0.65
2023-05-21T05:21:54.923Z,0.64
2023-05-21T05:22:44.974Z,0.65
2023-05-21T05:23:35.040Z,0.66
2023-05-21T05:24:25.106Z,0.67
2023-05-21T05:25:15.162Z,0.67
2023-05-21T05:26:05.219Z,0.65
2023-05-21T05:26:55.279Z,0.66
2023-05-21T05:27:45.329Z,0.66
2023-05-21T05:28:35.393Z,0.66
2023-05-21T05:29:25.469Z,0.66
2023-05-21T05:30:15.545Z,0.64
2023-05-21T05:31:05.622Z,0.64
2023-05-21T05:31:55.660Z,0.66
2023-05-21T05:32:45.778Z,0.65
2023-05-21T05:33:35.765Z,0.65
2023-05-21T05:34:25.833Z,0.68
2023-05-21T05:35:15.853Z,0.65
2023-05-21T05:36:05.937Z,0.67
2023-05-21T05:36:55.978Z,0.64
2023-05-21T05:37:46.026Z,0.65
2023-05-21T05:38:36.091Z,0.67
2023-05-21T05:39:26.173Z,0.65
2023-05-21T05:40:16.189Z,0.69
2023-05-21T05:41:06.248Z,0.68
2023-05-21T05:41:56.311Z,0.66
2023-05-21T05:42:46.359Z,0.66
2023-05-21T05:43:36.420Z,0.66
2023-05-21T05:44:26.492Z,0.68
2023-05-21T05:45:16.514Z,0.65
2023-05-21T05:46:06.600Z,0.67
2023-05-21T05:46:56.656Z,0.65
2023-05-21T05:47:46.735Z,0.66
2023-05-21T05:48:36.789Z,0.64
2023-05-21T05:49:26.853Z,0.67
2023-05-21T05:50:16.928Z,0.66
2023-05-21T05:51:06.974Z,0.66
2023-05-21T05:51:57.056Z,0.66
2023-05-21T05:52:47.102Z,0.67
2023-05-21T05:53:37.153Z,0.66
2023-05-21T05:54:27.225Z,0.66
2023-05-21T05:55:17.290Z,0.64
2023-05-21T05:56:07.353Z,0.66
2023-05-21T05:56:57.417Z,0.65
2023-05-21T05:57:47.469Z,0.64
2023-05-21T05:58:37.531Z,0.66
2023-05-21T05:59:27.607Z,0.65
2023-05-21T06:00:17.671Z,0.68
2023-05-21T06:01:07.733Z,0.63
2023-05-21T06:01:57.797Z,0.65
2023-05-21T06:02:47.937Z,0.65
2023-05-21T06:03:37.980Z,0.64
2023-05-21T06:04:28.013Z,0.62
2023-05-21T06:05:18.114Z,0.65
2023-05-21T06:06:08.160Z,0.64
2023-05-21T06:06:58.151Z,0.61
2023-05-21T06:07:48.348Z,0.64
2023-05-21T06:08:38.488Z,0.61
2023-05-21T06:09:28.322Z,0.63
2023-05-21T06:10:18.386Z,0.64
2023-05-21T06:11:08.433Z,0.68
2023-05-21T06:11:58.507Z,0.90
2023-05-21T06:12:48.565Z,1.25
2023-05-21T06:13:38.638Z,1.51
2023-05-21T06:14:28.710Z,1.70
2023-05-21T06:15:18.735Z,1.96
2023-05-21T06:16:08.820Z,2.25
2023-05-21T06:16:58.884Z,2.54
2023-05-21T06:17:48.919Z,2.90
2023-05-21T06:18:38.971Z,3.14
2023-05-21T06:19:29.145Z,3.36
2023-05-21T06:20:19.064Z,3.36
2023-05-21T06:21:09.112Z,3.37
2023-05-21T06:21:59.245Z,3.37
2023-05-21T06:22:49.206Z,3.34
2023-05-21T06:23:39.328Z,3.36
2023-05-21T06:24:29.357Z,3.12
2023-05-21T06:25:19.433Z,3.00
2023-05-21T06:26:09.411Z,2.87
2023-05-21T06:26:59.582Z,2.79
2023-05-21T06:27:49.516Z,2.65
2023-05-21T06:28:39.628Z,2.55
2023-05-21T06:29:29.731Z,2.57
2023-05-21T06:30:19.707Z,2.50
2023-05-21T06:31:09.850Z,2.44
2023-05-21T06:31:59.787Z,2.43
2023-05-21T06:32:49.987Z,2.41
2023-05-21T06:33:40.080Z,2.34
2023-05-21T06:34:29.977Z,2.31
2023-05-21T06:35:19.991Z,2.34
2023-05-21T06:36:10.100Z,2.27
2023-05-21T06:37:00.110Z,2.30
2023-05-21T06:37:50.243Z,2.31
2023-05-21T06:38:40.220Z,2.25
2023-05-21T06:39:30.344Z,2.17
2023-05-21T06:40:20.348Z,2.15
2023-05-21T06:41:10.437Z,2.15
2023-05-21T06:42:00.497Z,2.10
2023-05-21T06:42:50.583Z,2.09
2023-05-21T06:43:40.556Z,2.05
2023-05-21T06:44:30.662Z,2.05
2023-05-21T06:45:20.680Z,2.04
2023-05-21T06:46:10.839Z,2.01
2023-05-21T06:47:00.803Z,2.03
2023-05-21T06:47:50.941Z,1.87
2023-05-21T06:48:40.902Z,1.88
2023-05-21T06:49:31.006Z,1.88
2023-05-21T06:50:21.031Z,1.86
2023-05-21T06:51:11.153Z,1.80
2023-05-21T06:52:01.142Z,1.79
2023-05-21T06:52:51.276Z,1.80
2023-05-21T06:53:41.244Z,1.74
2023-05-21T06:54:31.343Z,1.73
2023-05-21T06:55:21.494Z,1.70
2023-05-21T06:56:11.495Z,1.68
2023-05-21T06:57:01.480Z,1.65
2023-05-21T06:57:51.615Z,1.68
2023-05-21T06:58:41.588Z,1.61
2023-05-21T06:59:32.444Z,1.63
2023-05-21T07:00:21.703Z,1.55
2023-05-21T07:01:11.908Z,1.54
2023-05-21T07:02:03.755Z,1.50
2023-05-21T07:02:52.060Z,1.49
2023-05-21T07:03:41.979Z,1.44
2023-05-21T07:04:32.017Z,1.41
2023-05-21T07:05:22.013Z,1.41
2023-05-21T07:06:12.179Z,1.42
2023-05-21T07:07:02.100Z,1.43
2023-05-21T07:07:52.194Z,1.46
2023-05-21T07:08:42.209Z,1.42
2023-05-21T07:09:32.351Z,1.39
2023-05-21T07:10:22.330Z,1.44
2023-05-21T07:11:12.454Z,1.47
2023-05-21T07:12:02.436Z,1.45
2023-05-21T07:12:52.537Z,1.44
2023-05-21T07:13:42.560Z,1.45
2023-05-21T07:14:32.687Z,1.44
2023-05-21T07:15:22.660Z,1.43
2023-05-21T07:16:12.791Z,1.39
2023-05-21T07:17:02.848Z,1.41
2023-05-21T07:17:53.002Z,1.40
2023-05-21T07:18:42.966Z,1.40
2023-05-21T07:19:33.075Z,1.46
2023-05-21T07:20:23.011Z,1.43
2023-05-21T07:21:13.118Z,1.43
2023-05-21T07:22:03.121Z,1.43
2023-05-21T07:22:53.232Z,1.42
2023-05-21T07:23:43.246Z,1.44
2023-05-21T07:24:33.373Z,1.42
2023-05-21T07:25:23.369Z,1.43
2023-05-21T07:26:13.450Z,1.40
2023-05-21T07:27:08.764Z,1.40
2023-05-21T07:27:54.485Z,1.40
2023-05-21T07:28:43.652Z,1.40
2023-05-21T07:29:33.608Z,1.41
2023-05-21T07:30:23.692Z,1.40
2023-05-21T07:31:13.744Z,1.42
2023-05-21T07:32:03.841Z,1.43
2023-05-21T07:32:53.829Z,1.39
2023-05-21T07:33:43.988Z,1.38
2023-05-21T07:34:33.920Z,1.36
2023-05-21T07:35:24.036Z,1.37
2023-05-21T07:36:14.945Z,1.31
2023-05-21T07:37:04.179Z,1.29
2023-05-21T07:37:54.263Z,1.34
2023-05-21T07:38:44.222Z,1.30
2023-05-21T07:39:34.301Z,1.33
2023-05-21T07:40:24.416Z,1.27
2023-05-21T07:41:15.932Z,1.25
2023-05-21T07:42:04.500Z,1.25
2023-05-21T07:42:54.544Z,1.25
2023-05-21T07:43:44.587Z,1.25
2023-05-21T07:44:34.626Z,1.27
2023-05-21T07:45:24.681Z,1.23
2023-05-21T07:46:14.780Z,1.27
2023-05-21T07:47:04.811Z,1.29
2023-05-21T07:47:54.922Z,1.26
2023-05-21T07:48:45.078Z,1.22
2023-05-21T07:49:34.989Z,1.20
2023-05-21T07:50:25.955Z,1.23
2023-05-21T07:51:15.127Z,1.22
2023-05-21T07:52:05.204Z,1.17
2023-05-21T07:52:55.273Z,1.21
2023-05-21T07:53:45.341Z,1.18
2023-05-21T07:54:35.404Z,1.15
2023-05-21T07:55:25.509Z,1.13
2023-05-21T07:56:15.549Z,1.15
2023-05-21T07:57:05.679Z,1.13
2023-05-21T07:57:55.627Z,1.13
2023-05-21T07:58:45.769Z,1.13
2023-05-21T07:59:35.723Z,1.16
2023-05-21T08:00:25.852Z,1.11
2023-05-21T08:01:15.844Z,1.12
2023-05-21T08:02:05.895Z,1.08
2023-05-21T08:02:56.001Z,1.10
2023-05-21T08:03:46.205Z,1.09
2023-05-21T08:04:38.521Z,1.11
2023-05-21T08:05:26.154Z,1.11
2023-05-21T08:06:16.130Z,1.11
2023-05-21T08:07:06.240Z,1.09
2023-05-21T08:07:56.242Z,1.09
2023-05-21T08:08:46.407Z,1.06
2023-05-21T08:09:36.354Z,1.07
2023-05-21T08:10:26.440Z,1.02
2023-05-21T08:11:16.474Z,1.07
2023-05-21T08:12:06.614Z,1.05
2023-05-21T08:12:56.556Z,1.05
2023-05-21T08:13:46.745Z,1.08
2023-05-21T08:14:36.683Z,1.03
2023-05-21T08:15:26.780Z,1.04
2023-05-21T08:16:16.876Z,1.03
2023-05-21T08:17:06.939Z,1.02
2023-05-21T08:17:56.955Z,1.04
2023-05-21T08:18:47.042Z,1.00
2023-05-21T08:19:37.074Z,1.02
2023-05-21T08:20:27.131Z,1.00
2023-05-21T08:21:17.166Z,0.99
2023-05-21T08:22:07.340Z,0.98
2023-05-21T08:22:57.282Z,1.00
2023-05-21T08:23:47.417Z,0.98
2023-05-21T08:24:37.388Z,0.98
2023-05-21T08:25:27.466Z,0.98
2023-05-21T08:26:17.501Z,0.98
2023-05-21T08:27:07.667Z,0.99
2023-05-21T08:27:58.499Z,0.96
2023-05-21T08:28:47.664Z,0.97
2023-05-21T08:29:37.761Z,0.98
2023-05-21T08:30:27.838Z,0.96
2023-05-21T08:31:17.839Z,0.98
2023-05-21T08:32:07.971Z,0.98
2023-05-21T08:32:57.981Z,0.94
2023-05-21T08:33:48.008Z,0.95
2023-05-21T08:34:37.981Z,0.97
2023-05-21T08:35:28.157Z,0.96
2023-05-21T08:36:18.109Z,0.96
2023-05-21T08:37:08.198Z,0.97
2023-05-21T08:37:58.172Z,0.93
2023-05-21T08:38:48.251Z,0.91
2023-05-21T08:39:38.270Z,0.94
2023-05-21T08:40:28.422Z,0.89
2023-05-21T08:41:18.445Z,0.90
2023-05-21T08:42:08.545Z,0.92
2023-05-21T08:42:58.538Z,0.90
2023-05-21T08:43:50.433Z,0.85
2023-05-21T08:44:38.658Z,0.83
2023-05-21T08:45:28.886Z,0.82
2023-05-21T08:46:18.947Z,0.83
2023-05-21T08:47:08.883Z,0.82
2023-05-21T08:47:58.948Z,0.83
2023-05-21T08:48:49.038Z,0.84
2023-05-21T08:49:39.015Z,0.83
2023-05-21T08:50:29.210Z,0.82
2023-05-21T08:51:19.269Z,0.82
2023-05-21T08:52:09.230Z,0.79
2023-05-21T08:52:59.299Z,0.81
2023-05-21T08:53:49.374Z,0.79
2023-05-21T08:54:39.464Z,0.79
2023-05-21T08:55:29.536Z,0.78
2023-05-21T08:56:19.521Z,0.78
2023-05-21T08:57:09.568Z,0.79
2023-05-21T08:57:59.596Z,0.80
2023-05-21T08:58:49.745Z,0.76
2023-05-21T08:59:39.700Z,0.78
2023-05-21T09:00:29.878Z,0.78
2023-05-21T09:01:19.999Z,0.76
2023-05-21T09:02:09.943Z,0.76
2023-05-21T09:03:00.050Z,0.74
2023-05-21T09:03:50.104Z,0.75
2023-05-21T09:04:40.136Z,0.75
2023-05-21T09:05:30.208Z,0.78
2023-05-21T09:06:20.203Z,0.77
2023-05-21T09:07:10.262Z,0.77
2023-05-21T09:08:00.277Z,0.78
2023-05-21T09:08:50.407Z,0.75
2023-05-21T09:09:40.384Z,0.76
2023-05-21T09:10:30.552Z,0.75
2023-05-21T09:11:20.506Z,0.76
2023-05-21T09:12:10.594Z,0.77
2023-05-21T09:13:00.574Z,0.76
2023-05-21T09:13:50.764Z,0.76
2023-05-21T09:14:40.682Z,0.76
2023-05-21T09:15:30.818Z,0.75
2023-05-21T09:16:20.857Z,0.76
2023-05-21T09:17:10.949Z,0.74
2023-05-21T09:18:00.980Z,0.75
2023-05-21T09:18:51.131Z,0.74
2023-05-21T09:19:41.123Z,0.72
2023-05-21T09:20:31.136Z,0.74
2023-05-21T09:21:21.145Z,0.76
2023-05-21T09:22:11.185Z,0.74
2023-05-21T09:23:01.203Z,0.73
2023-05-21T09:23:51.338Z,0.75
2023-05-21T09:24:41.313Z,0.74
2023-05-21T09:25:31.381Z,0.74
2023-05-21T09:26:21.414Z,0.74
2023-05-21T09:27:11.536Z,0.74
2023-05-21T09:28:01.526Z,0.72
2023-05-21T09:28:51.683Z,0.74
2023-05-21T09:29:41.618Z,0.73
2023-05-21T09:30:35.717Z,0.73
2023-05-21T09:31:21.747Z,0.73
2023-05-21T09:32:11.879Z,0.73
2023-05-21T09:33:01.916Z,0.72
2023-05-21T09:33:51.955Z,0.73
2023-05-21T09:34:41.921Z,0.72
2023-05-21T09:35:32.118Z,0.76
2023-05-21T09:36:22.047Z,0.74
2023-05-21T09:37:23.555Z,0.74
2023-05-21T09:38:03.127Z,0.74
2023-05-21T09:38:52.366Z,0.74
2023-05-21T09:39:42.254Z,0.74
2023-05-21T09:40:32.414Z,0.74
2023-05-21T09:41:22.612Z,0.75
2023-05-21T09:42:12.557Z,0.75
2023-05-21T09:43:02.491Z,0.74
2023-05-21T09:43:52.604Z,0.74
2023-05-21T09:44:42.616Z,0.74
2023-05-21T09:45:32.757Z,0.74
2023-05-21T09:46:22.783Z,0.76
2023-05-21T09:47:12.898Z,0.73
2023-05-21T09:48:02.867Z,0.76
2023-05-21T09:48:52.939Z,0.73
2023-05-21T09:49:42.991Z,0.72
2023-05-21T09:50:33.097Z,0.74
2023-05-21T09:51:23.097Z,0.74
2023-05-21T09:52:13.137Z,0.74
2023-05-21T09:53:03.168Z,0.75
2023-05-21T09:53:53.318Z,0.72
2023-05-21T09:54:43.265Z,0.74
2023-05-21T09:55:33.440Z,0.74
2023-05-21T09:56:23.408Z,0.74
2023-05-21T09:57:13.479Z,0.73
2023-05-21T09:58:03.486Z,0.72
2023-05-21T09:58:53.637Z,0.72
2023-05-21T09:59:43.594Z,0.72
2023-05-21T10:00:33.761Z,0.70
2023-05-21T10:01:23.813Z,0.72
2023-05-21T10:02:13.893Z,0.71
2023-05-21T10:03:03.985Z,0.71
2023-05-21T10:03:54.029Z,0.73
2023-05-21T10:04:44.089Z,0.72
2023-05-21T10:05:34.043Z,0.70
2023-05-21T10:06:24.052Z,0.69
2023-05-21T10:07:14.103Z,0.72
2023-05-21T10:08:04.241Z,0.70
2023-05-21T10:08:54.228Z,0.70
2023-05-21T10:09:44.286Z,0.70
2023-05-21T10:10:34.380Z,0.69
2023-05-21T10:11:24.468Z,0.70
2023-05-21T10:12:14.431Z,0.69
2023-05-21T10:13:04.477Z,0.69
2023-05-21T10:13:54.535Z,0.69
2023-05-21T10:14:44.630Z,0.70
2023-05-21T10:15:34.645Z,0.69
2023-05-21T10:16:24.837Z,0.68
2023-05-21T10:17:14.734Z,0.71
2023-05-21T10:18:04.902Z,0.69
2023-05-21T10:18:54.863Z,0.70
2023-05-21T10:19:44.985Z,0.70
2023-05-21T10:20:35.098Z,0.71
2023-05-21T10:21:25.148Z,0.70
2023-05-21T10:22:15.078Z,0.71
2023-05-21T10:23:05.179Z,0.70
2023-05-21T10:23:55.186Z,0.68
2023-05-21T10:24:45.315Z,0.68
2023-05-21T10:25:35.303Z,0.68
2023-05-21T10:26:25.391Z,0.70
2023-05-21T10:27:15.417Z,0.68
2023-05-21T10:28:05.510Z,0.69
2023-05-21T10:28:55.527Z,0.69
2023-05-21T10:29:45.661Z,0.68
2023-05-21T10:30:35.837Z,0.68
2023-05-21T10:31:25.733Z,0.70
2023-05-21T10:32:15.811Z,0.68
2023-05-21T10:33:05.954Z,0.69
2023-05-21T10:33:55.831Z,0.69
2023-05-21T10:34:46.000Z,0.70
2023-05-21T10:35:36.066Z,0.69
2023-05-21T10:36:26.105Z,0.67
2023-05-21T10:37:16.043Z,0.69
2023-05-21T10:38:06.096Z,0.68
2023-05-21T10:38:56.116Z,0.68
2023-05-21T10:39:46.248Z,0.68
2023-05-21T10:40:36.466Z,0.68
2023-05-21T10:41:26.324Z,0.69
2023-05-21T10:42:16.350Z,0.69
2023-05-21T10:43:06.433Z,0.68
2023-05-21T10:43:56.459Z,0.69
2023-05-21T10:44:46.586Z,0.69
2023-05-21T10:45:36.594Z,0.70
2023-05-21T10:46:26.662Z,0.70
2023-05-21T10:47:16.692Z,0.69
2023-05-21T10:48:06.849Z,0.70
2023-05-21T10:48:56.824Z,0.68
2023-05-21T10:49:46.938Z,0.68
2023-05-21T10:50:37.174Z,0.68
2023-05-21T10:51:27.005Z,0.67
2023-05-21T10:52:17.037Z,0.68
2023-05-21T10:53:09.282Z,0.66
2023-05-21T10:53:57.135Z,0.66
2023-05-21T10:54:47.277Z,0.66
2023-05-21T10:55:37.244Z,0.67
2023-05-21T10:56:27.355Z,0.67
2023-05-21T10:57:17.360Z,0.67
2023-05-21T10:58:07.483Z,0.65
2023-05-21T10:58:57.491Z,0.67
2023-05-21T10:59:47.635Z,0.66
2023-05-21T11:00:37.809Z,0.66
2023-05-21T11:01:27.710Z,0.67
2023-05-21T11:02:17.769Z,0.66
2023-05-21T11:03:07.878Z,0.66
2023-05-21T11:03:57.856Z,0.67
2023-05-21T11:04:47.968Z,0.66
2023-05-21T11:05:37.940Z,0.65
2023-05-21T11:06:28.037Z,0.67